Sti Opera — V7CJ3 — position and weather

sailwx.info

Track history (hours):
 
Tides and Currents Weather Stations Pressure Air Temp Water Temp Dewpoint Dewpoint Depression Visibility Wind Speed Wind Dir Waves Ship Positions

Sti Opera

Last reported at 2018-Jan-21 10:30 UTC. Time now 2018-Jan-21 10:48 UTC.
Position N 51°16' E 004°21'.

Length 183 m; draft 9.2 m.

Type: Tanker. MMSI: 538005269.

Date/timePositionNaut miles runAvg speedWind from/ knotsBaromVisibWave heightAir tempDewpointWater temp
2018-Jan-21 10:30N 51°16' E 004°21'0 0.0
2018-Jan-21 10:00N 51°16' E 004°21'0 0.0
2018-Jan-21 09:30N 51°16' E 004°21'0 0.0
2018-Jan-21 08:57N 51°16' E 004°21'0 0.0
2018-Jan-21 08:30N 51°16' E 004°21'0 0.0
2018-Jan-21 07:57N 51°16' E 004°21'0 0.0
2018-Jan-21 07:30N 51°16' E 004°21'0 0.0
2018-Jan-21 06:54N 51°16' E 004°21'0 0.0
2018-Jan-21 06:30N 51°16' E 004°21'0 0.0
2018-Jan-21 05:57N 51°16' E 004°21'0 0.0
2018-Jan-21 05:27N 51°16' E 004°21'0 0.0
2018-Jan-21 04:57N 51°16' E 004°21'0 0.0
2018-Jan-21 04:27N 51°16' E 004°21'0 0.0
2018-Jan-21 04:00N 51°16' E 004°21'0 0.0
2018-Jan-21 03:27N 51°16' E 004°21'0 0.0
2018-Jan-21 03:00N 51°16' E 004°21'0 0.0
2018-Jan-21 02:30N 51°16' E 004°21'0 0.0
2018-Jan-21 02:00N 51°16' E 004°21'0 0.0
2018-Jan-21 01:30N 51°16' E 004°21'0 0.0
2018-Jan-21 00:54N 51°16' E 004°21'0 0.0
2018-Jan-21 00:30N 51°16' E 004°21'0 0.0
2018-Jan-21 00:00N 51°16' E 004°21'0 0.0
2018-Jan-20 23:27N 51°16' E 004°21'0 0.0
2018-Jan-20 23:00N 51°16' E 004°21'0 0.0
2018-Jan-20 22:30N 51°16' E 004°21'0 0.0
2018-Jan-20 22:00N 51°16' E 004°21'0 0.0
2018-Jan-20 21:27N 51°16' E 004°21'0 0.0
2018-Jan-20 20:57N 51°16' E 004°21'0 0.0
2018-Jan-20 20:30N 51°16' E 004°21'0 0.0
2018-Jan-20 20:00N 51°16' E 004°21'0 0.0
2018-Jan-20 19:30N 51°16' E 004°21'0 0.0
2018-Jan-20 18:57N 51°16' E 004°21'0 0.0
2018-Jan-20 18:30N 51°16' E 004°21'0 0.0
2018-Jan-20 17:57N 51°16' E 004°21'0 0.0
2018-Jan-20 17:30N 51°16' E 004°21'0 0.0
2018-Jan-20 17:00N 51°16' E 004°21'0 0.0
2018-Jan-20 16:30N 51°16' E 004°21'0 0.0
2018-Jan-20 16:00N 51°16' E 004°21'0 0.0
2018-Jan-20 15:27N 51°16' E 004°21'0 0.0
2018-Jan-20 15:00N 51°16' E 004°21'0 0.0
2018-Jan-20 14:30N 51°16' E 004°21'0 0.0
2018-Jan-20 13:57N 51°16' E 004°21'0 0.0
2018-Jan-20 13:30N 51°16' E 004°21'0 0.0
2018-Jan-20 12:57N 51°16' E 004°21'0 0.0
2018-Jan-20 12:27N 51°16' E 004°21'0 0.0
2018-Jan-20 12:00N 51°16' E 004°21'0 0.0
2018-Jan-20 11:27N 51°16' E 004°21'0 0.0
2018-Jan-20 10:51N 51°16' E 004°21'0 0.0
2018-Jan-20 10:30N 51°16' E 004°21'0 0.0
2018-Jan-20 09:57N 51°16' E 004°21'0 0.0
2018-Jan-20 09:21N 51°16' E 004°21'0 0.0
2018-Jan-20 08:57N 51°16' E 004°21'0 0.0
2018-Jan-20 08:27N 51°16' E 004°21'0 0.0
2018-Jan-20 08:00N 51°16' E 004°21'0 0.0
2018-Jan-20 07:27N 51°16' E 004°21'0 0.0
2018-Jan-20 07:00N 51°16' E 004°21'0 0.0
2018-Jan-20 06:27N 51°16' E 004°21'0 0.0
2018-Jan-20 06:00N 51°16' E 004°21'0 0.0
2018-Jan-20 05:30N 51°16' E 004°21'0 0.0
2018-Jan-20 05:00N 51°16' E 004°21'0 0.0
2018-Jan-20 04:30N 51°16' E 004°21'0 0.0
2018-Jan-20 04:00N 51°16' E 004°21'0 0.9
2018-Jan-20 03:30N 51°17' E 004°21'3 6.2
2018-Jan-20 03:00N 51°20' E 004°18'1 2.8
2018-Jan-20 02:30N 51°21' E 004°17'0 0.0
2018-Jan-20 02:01N 51°21' E 004°17'0 0.0
2018-Jan-20 01:30N 51°21' E 004°17'1 1.7
2018-Jan-20 01:00N 51°21' E 004°16'2 3.9
2018-Jan-20 00:30N 51°22' E 004°13'2 4.7
2018-Jan-20 00:00N 51°23' E 004°10'510.5
2018-Jan-19 23:31N 51°24' E 004°02'4 7.7
2018-Jan-19 23:01N 51°23' E 003°56'612.1
2018-Jan-19 22:30N 51°21' E 003°47'611.2
2018-Jan-19 22:00N 51°26' E 003°41'4 8.4
2018-Jan-19 21:30N 51°25' E 003°34'4 7.1
2018-Jan-19 21:00N 51°25' E 003°29'3 6.2
2018-Jan-19 20:30N 51°24' E 003°24'4 7.7
2018-Jan-19 20:00N 51°24' E 003°18'4 8.6
2018-Jan-19 19:31N 51°24' E 003°11'4 7.3
2018-Jan-19 19:00N 51°24' E 003°05'4 8.2
2018-Jan-19 18:31N 51°25' E 002°58'4 8.7
2018-Jan-19 18:00N 51°25' E 002°51'5 9.7
2018-Jan-19 17:30N 51°23' E 002°44'3 6.3
2018-Jan-19 16:58N 51°22' E 002°39'3 6.1
2018-Jan-19 16:30N 51°22' E 002°35'2 4.7
2018-Jan-19 15:59N 51°24' E 002°34'3 5.4
2018-Jan-19 15:30N 51°26' E 002°37'0 0.2
2018-Jan-19 14:50N 51°26' E 002°37'0 0.0
2018-Jan-19 14:26N 51°26' E 002°37'0 0.0
2018-Jan-19 13:59N 51°26' E 002°37'0 0.0
2018-Jan-19 13:29N 51°26' E 002°37'0 0.0
2018-Jan-19 12:08N 51°26' E 002°37'0 0.0
2018-Jan-19 06:35N 51°26' E 002°37'0 0.1
2018-Jan-19 06:17N 51°26' E 002°37'0 0.0
2018-Jan-19 01:26N 51°26' E 002°37'2 0.2
2018-Jan-18 15:44N 51°25' E 002°35'3 7.8
2018-Jan-18 15:20N 51°23' E 002°32'4 9.4
2018-Jan-18 14:55N 51°21' E 002°27'3 6.6
2018-Jan-18 14:30N 51°21' E 002°22'1 2.6
2018-Jan-18 14:00N 51°21' E 002°24'1 1.2
2018-Jan-18 13:30N 51°21' E 002°25'0 0.7
2018-Jan-18 12:58N 51°22' E 002°26'1 1.8
2018-Jan-18 12:24N 51°22' E 002°27'1 1.8
2018-Jan-18 11:50N 51°22' E 002°29'1 2.9
2018-Jan-18 11:29N 51°21' E 002°28'3 4.7
2018-Jan-18 10:56N 51°20' E 002°24'2 4.2
2018-Jan-18 10:29N 51°20' E 002°21'2 4.3
2018-Jan-18 10:00N 51°19' E 002°18'1 1.4
2018-Jan-18 09:30N 51°20' E 002°18'1 2.3
2018-Jan-18 09:00N 51°20' E 002°20'1 2.3
2018-Jan-18 08:30N 51°21' E 002°21'1 2.3
2018-Jan-18 08:00N 51°21' E 002°23'1 2.1
2018-Jan-18 07:30N 51°21' E 002°24'1 2.1
2018-Jan-18 07:00N 51°22' E 002°26'1 1.2
2018-Jan-18 06:30N 51°22' E 002°27'1 1.3
2018-Jan-18 06:00N 51°22' E 002°28'1 1.6
2018-Jan-18 05:30N 51°22' E 002°29'4 7.2
2018-Jan-18 05:00N 51°21' E 002°24'1 1.6
2018-Jan-18 04:30N 51°21' E 002°23'2 3.3
2018-Jan-18 03:59N 51°22' E 002°25'1 2.6
2018-Jan-18 03:29N 51°22' E 002°27'1 2.0
2018-Jan-18 02:57N 51°23' E 002°29'2 3.7
2018-Jan-18 02:31N 51°22' E 002°27'3 5.2
2018-Jan-18 02:00N 51°21' E 002°23'1 1.6
2018-Jan-18 01:31N 51°21' E 002°24'1 1.5
2018-Jan-18 00:58N 51°22' E 002°25'2 1.6
2018-Jan-18 00:00N 51°22' E 002°27'0 1.6
2018-Jan-17 23:57N 51°22' E 002°27'  
2018-Jan-12 14:57N 51°26' E 002°36'0 0.0
2018-Jan-12 14:30N 51°26' E 002°36'0 0.1
2018-Jan-12 13:57N 51°26' E 002°36'0 0.1
2018-Jan-12 13:30N 51°26' E 002°37'0 0.1
2018-Jan-12 13:01N 51°26' E 002°37'0 0.0
2018-Jan-12 12:30N 51°26' E 002°37'0 0.0
2018-Jan-12 11:37N 51°26' E 002°37'0 0.0
2018-Jan-12 11:30N 51°26' E 002°37'0 0.0
2018-Jan-12 10:55N 51°26' E 002°37'0 0.0
2018-Jan-12 10:25N 51°26' E 002°37'0 0.0
2018-Jan-12 09:58N 51°26' E 002°37'0 0.0
2018-Jan-12 09:27N 51°26' E 002°37'0 0.0
2018-Jan-12 08:58N 51°26' E 002°37'0 0.0
2018-Jan-12 00:43N 51°26' E 002°36'0 0.2
2018-Jan-12 00:21N 51°26' E 002°37'0 0.0
2018-Jan-12 00:01N 51°26' E 002°37'0 0.0
2018-Jan-11 23:15N 51°26' E 002°37'0 0.0
2018-Jan-11 22:57N 51°26' E 002°37'0 0.0
2018-Jan-11 22:30N 51°26' E 002°37'0 0.0
2018-Jan-11 21:57N 51°26' E 002°37'0 0.0
2018-Jan-11 21:21N 51°26' E 002°37'0 0.0
2018-Jan-11 20:30N 51°26' E 002°37'0 0.1
2018-Jan-11 19:49N 51°26' E 002°37'0 0.0
2018-Jan-11 14:45N 51°26' E 002°36'0 0.1
2018-Jan-11 12:18N 51°26' E 002°37'0 0.1
2018-Jan-11 11:57N 51°26' E 002°37'0 0.5
2018-Jan-11 11:14N 51°26' E 002°36'1 3.1
2018-Jan-11 11:00N 51°26' E 002°35'  
Track history (hours):
 
Tides and Currents Weather Stations Pressure Air Temp Water Temp Dewpoint Dewpoint Depression Visibility Wind Speed Wind Dir Waves Ship Positions

Sti Opera

Last reported at 2018-Jan-21 10:30 UTC. Time now 2018-Jan-21 10:48 UTC.
Position N 51°16' E 004°21'.

Length 183 m; draft 9.2 m.

Type: Tanker. MMSI: 538005269.

Date/timePositionNaut miles runAvg speedWind from/ knotsBaromVisibWave heightAir tempDewpointWater temp
2018-Jan-21 10:30N 51°16' E 004°21'0 0.0
2018-Jan-21 10:00N 51°16' E 004°21'0 0.0
2018-Jan-21 09:30N 51°16' E 004°21'0 0.0
2018-Jan-21 08:57N 51°16' E 004°21'0 0.0
2018-Jan-21 08:30N 51°16' E 004°21'0 0.0
2018-Jan-21 07:57N 51°16' E 004°21'0 0.0
2018-Jan-21 07:30N 51°16' E 004°21'0 0.0
2018-Jan-21 06:54N 51°16' E 004°21'0 0.0
2018-Jan-21 06:30N 51°16' E 004°21'0 0.0
2018-Jan-21 05:57N 51°16' E 004°21'0 0.0
2018-Jan-21 05:27N 51°16' E 004°21'0 0.0
2018-Jan-21 04:57N 51°16' E 004°21'0 0.0
2018-Jan-21 04:27N 51°16' E 004°21'0 0.0
2018-Jan-21 04:00N 51°16' E 004°21'0 0.0
2018-Jan-21 03:27N 51°16' E 004°21'0 0.0
2018-Jan-21 03:00N 51°16' E 004°21'0 0.0
2018-Jan-21 02:30N 51°16' E 004°21'0 0.0
2018-Jan-21 02:00N 51°16' E 004°21'0 0.0
2018-Jan-21 01:30N 51°16' E 004°21'0 0.0
2018-Jan-21 00:54N 51°16' E 004°21'0 0.0
2018-Jan-21 00:30N 51°16' E 004°21'0 0.0
2018-Jan-21 00:00N 51°16' E 004°21'0 0.0
2018-Jan-20 23:27N 51°16' E 004°21'0 0.0
2018-Jan-20 23:00N 51°16' E 004°21'0 0.0
2018-Jan-20 22:30N 51°16' E 004°21'0 0.0
2018-Jan-20 22:00N 51°16' E 004°21'0 0.0
2018-Jan-20 21:27N 51°16' E 004°21'0 0.0
2018-Jan-20 20:57N 51°16' E 004°21'0 0.0
2018-Jan-20 20:30N 51°16' E 004°21'0 0.0
2018-Jan-20 20:00N 51°16' E 004°21'0 0.0
2018-Jan-20 19:30N 51°16' E 004°21'0 0.0
2018-Jan-20 18:57N 51°16' E 004°21'0 0.0
2018-Jan-20 18:30N 51°16' E 004°21'0 0.0
2018-Jan-20 17:57N 51°16' E 004°21'0 0.0
2018-Jan-20 17:30N 51°16' E 004°21'0 0.0
2018-Jan-20 17:00N 51°16' E 004°21'0 0.0
2018-Jan-20 16:30N 51°16' E 004°21'0 0.0
2018-Jan-20 16:00N 51°16' E 004°21'0 0.0
2018-Jan-20 15:27N 51°16' E 004°21'0 0.0
2018-Jan-20 15:00N 51°16' E 004°21'0 0.0
2018-Jan-20 14:30N 51°16' E 004°21'0 0.0
2018-Jan-20 13:57N 51°16' E 004°21'0 0.0
2018-Jan-20 13:30N 51°16' E 004°21'0 0.0
2018-Jan-20 12:57N 51°16' E 004°21'0 0.0
2018-Jan-20 12:27N 51°16' E 004°21'0 0.0
2018-Jan-20 12:00N 51°16' E 004°21'0 0.0
2018-Jan-20 11:27N 51°16' E 004°21'0 0.0
2018-Jan-20 10:51N 51°16' E 004°21'0 0.0
2018-Jan-20 10:30N 51°16' E 004°21'0 0.0
2018-Jan-20 09:57N 51°16' E 004°21'0 0.0
2018-Jan-20 09:21N 51°16' E 004°21'0 0.0
2018-Jan-20 08:57N 51°16' E 004°21'0 0.0
2018-Jan-20 08:27N 51°16' E 004°21'0 0.0
2018-Jan-20 08:00N 51°16' E 004°21'0 0.0
2018-Jan-20 07:27N 51°16' E 004°21'0 0.0
2018-Jan-20 07:00N 51°16' E 004°21'0 0.0
2018-Jan-20 06:27N 51°16' E 004°21'0 0.0
2018-Jan-20 06:00N 51°16' E 004°21'0 0.0
2018-Jan-20 05:30N 51°16' E 004°21'0 0.0
2018-Jan-20 05:00N 51°16' E 004°21'0 0.0
2018-Jan-20 04:30N 51°16' E 004°21'0 0.0
2018-Jan-20 04:00N 51°16' E 004°21'0 0.9
2018-Jan-20 03:30N 51°17' E 004°21'3 6.2
2018-Jan-20 03:00N 51°20' E 004°18'1 2.8
2018-Jan-20 02:30N 51°21' E 004°17'0 0.0
2018-Jan-20 02:01N 51°21' E 004°17'0 0.0
2018-Jan-20 01:30N 51°21' E 004°17'1 1.7
2018-Jan-20 01:00N 51°21' E 004°16'2 3.9
2018-Jan-20 00:30N 51°22' E 004°13'2 4.7
2018-Jan-20 00:00N 51°23' E 004°10'510.5
2018-Jan-19 23:31N 51°24' E 004°02'4 7.7
2018-Jan-19 23:01N 51°23' E 003°56'612.1
2018-Jan-19 22:30N 51°21' E 003°47'611.2
2018-Jan-19 22:00N 51°26' E 003°41'4 8.4
2018-Jan-19 21:30N 51°25' E 003°34'4 7.1
2018-Jan-19 21:00N 51°25' E 003°29'3 6.2
2018-Jan-19 20:30N 51°24' E 003°24'4 7.7
2018-Jan-19 20:00N 51°24' E 003°18'4 8.6
2018-Jan-19 19:31N 51°24' E 003°11'4 7.3
2018-Jan-19 19:00N 51°24' E 003°05'4 8.2
2018-Jan-19 18:31N 51°25' E 002°58'4 8.7
2018-Jan-19 18:00N 51°25' E 002°51'5 9.7
2018-Jan-19 17:30N 51°23' E 002°44'3 6.3
2018-Jan-19 16:58N 51°22' E 002°39'3 6.1
2018-Jan-19 16:30N 51°22' E 002°35'2 4.7
2018-Jan-19 15:59N 51°24' E 002°34'3 5.4
2018-Jan-19 15:30N 51°26' E 002°37'0 0.2
2018-Jan-19 14:50N 51°26' E 002°37'0 0.0
2018-Jan-19 14:26N 51°26' E 002°37'0 0.0
2018-Jan-19 13:59N 51°26' E 002°37'0 0.0
2018-Jan-19 13:29N 51°26' E 002°37'0 0.0
2018-Jan-19 12:08N 51°26' E 002°37'0 0.0
2018-Jan-19 06:35N 51°26' E 002°37'0 0.1
2018-Jan-19 06:17N 51°26' E 002°37'0 0.0
2018-Jan-19 01:26N 51°26' E 002°37'2 0.2
2018-Jan-18 15:44N 51°25' E 002°35'3 7.8
2018-Jan-18 15:20N 51°23' E 002°32'4 9.4
2018-Jan-18 14:55N 51°21' E 002°27'3 6.6
2018-Jan-18 14:30N 51°21' E 002°22'1 2.6
2018-Jan-18 14:00N 51°21' E 002°24'1 1.2
2018-Jan-18 13:30N 51°21' E 002°25'0 0.7
2018-Jan-18 12:58N 51°22' E 002°26'1 1.8
2018-Jan-18 12:24N 51°22' E 002°27'1 1.8
2018-Jan-18 11:50N 51°22' E 002°29'1 2.9
2018-Jan-18 11:29N 51°21' E 002°28'3 4.7
2018-Jan-18 10:56N 51°20' E 002°24'2 4.2
2018-Jan-18 10:29N 51°20' E 002°21'2 4.3
2018-Jan-18 10:00N 51°19' E 002°18'1 1.4
2018-Jan-18 09:30N 51°20' E 002°18'1 2.3
2018-Jan-18 09:00N 51°20' E 002°20'1 2.3
2018-Jan-18 08:30N 51°21' E 002°21'1 2.3
2018-Jan-18 08:00N 51°21' E 002°23'1 2.1
2018-Jan-18 07:30N 51°21' E 002°24'1 2.1
2018-Jan-18 07:00N 51°22' E 002°26'1 1.2
2018-Jan-18 06:30N 51°22' E 002°27'1 1.3
2018-Jan-18 06:00N 51°22' E 002°28'1 1.6
2018-Jan-18 05:30N 51°22' E 002°29'4 7.2
2018-Jan-18 05:00N 51°21' E 002°24'1 1.6
2018-Jan-18 04:30N 51°21' E 002°23'2 3.3
2018-Jan-18 03:59N 51°22' E 002°25'1 2.6
2018-Jan-18 03:29N 51°22' E 002°27'1 2.0
2018-Jan-18 02:57N 51°23' E 002°29'2 3.7
2018-Jan-18 02:31N 51°22' E 002°27'3 5.2
2018-Jan-18 02:00N 51°21' E 002°23'1 1.6
2018-Jan-18 01:31N 51°21' E 002°24'1 1.5
2018-Jan-18 00:58N 51°22' E 002°25'2 1.6
2018-Jan-18 00:00N 51°22' E 002°27'0 1.6
2018-Jan-17 23:57N 51°22' E 002°27'  
2018-Jan-12 14:57N 51°26' E 002°36'0 0.0
2018-Jan-12 14:30N 51°26' E 002°36'0 0.1
2018-Jan-12 13:57N 51°26' E 002°36'0 0.1
2018-Jan-12 13:30N 51°26' E 002°37'0 0.1
2018-Jan-12 13:01N 51°26' E 002°37'0 0.0
2018-Jan-12 12:30N 51°26' E 002°37'0 0.0
2018-Jan-12 11:37N 51°26' E 002°37'0 0.0
2018-Jan-12 11:30N 51°26' E 002°37'0 0.0
2018-Jan-12 10:55N 51°26' E 002°37'0 0.0
2018-Jan-12 10:25N 51°26' E 002°37'0 0.0
2018-Jan-12 09:58N 51°26' E 002°37'0 0.0
2018-Jan-12 09:27N 51°26' E 002°37'0 0.0
2018-Jan-12 08:58N 51°26' E 002°37'0 0.0
2018-Jan-12 00:43N 51°26' E 002°36'0 0.2
2018-Jan-12 00:21N 51°26' E 002°37'0 0.0
2018-Jan-12 00:01N 51°26' E 002°37'0 0.0
2018-Jan-11 23:15N 51°26' E 002°37'0 0.0
2018-Jan-11 22:57N 51°26' E 002°37'0 0.0
2018-Jan-11 22:30N 51°26' E 002°37'0 0.0
2018-Jan-11 21:57N 51°26' E 002°37'0 0.0
2018-Jan-11 21:21N 51°26' E 002°37'0 0.0
2018-Jan-11 20:30N 51°26' E 002°37'0 0.1
2018-Jan-11 19:49N 51°26' E 002°37'0 0.0
2018-Jan-11 14:45N 51°26' E 002°36'0 0.1
2018-Jan-11 12:18N 51°26' E 002°37'0 0.1
2018-Jan-11 11:57N 51°26' E 002°37'0 0.5
2018-Jan-11 11:14N 51°26' E 002°36'1 3.1
2018-Jan-11 11:00N 51°26' E 002°35'  

Dump ship's entire track history